sensor_id;sensor_type;location;lat;lon;timestamp;pressure;altitude;pressure_sealevel;temperature;humidity
71476;BME280;59286;59.274;17.974;2023-08-01T00:01:26;99609.97;;;13.28;100.00
71476;BME280;59286;59.274;17.974;2023-08-01T00:03:51;99573.19;;;13.16;100.00
71476;BME280;59286;59.274;17.974;2023-08-01T00:06:17;99568.16;;;13.11;100.00
71476;BME280;59286;59.274;17.974;2023-08-01T00:08:42;99605.00;;;13.39;100.00
71476;BME280;59286;59.274;17.974;2023-08-01T00:11:08;99608.16;;;13.44;100.00
71476;BME280;59286;59.274;17.974;2023-08-01T00:13:35;99602.91;;;13.44;100.00
71476;BME280;59286;59.274;17.974;2023-08-01T00:16:00;99561.75;;;13.24;100.00
71476;BME280;59286;59.274;17.974;2023-08-01T00:18:25;99559.13;;;13.24;100.00
71476;BME280;59286;59.274;17.974;2023-08-01T00:20:54;99584.47;;;13.44;100.00
71476;BME280;59286;59.274;17.974;2023-08-01T00:23:19;99554.72;;;13.28;100.00
71476;BME280;59286;59.274;17.974;2023-08-01T00:25:45;99593.63;;;13.50;100.00
71476;BME280;59286;59.274;17.974;2023-08-01T00:28:16;99592.91;;;13.50;100.00
71476;BME280;59286;59.274;17.974;2023-08-01T00:30:42;99582.06;;;13.39;100.00
71476;BME280;59286;59.274;17.974;2023-08-01T00:33:07;99596.78;;;13.40;100.00
71476;BME280;59286;59.274;17.974;2023-08-01T00:35:32;99591.72;;;13.35;100.00
71476;BME280;59286;59.274;17.974;2023-08-01T00:37:58;99591.66;;;13.32;100.00
71476;BME280;59286;59.274;17.974;2023-08-01T00:40:23;99581.03;;;13.28;100.00
71476;BME280;59286;59.274;17.974;2023-08-01T00:42:49;99582.56;;;13.29;100.00
71476;BME280;59286;59.274;17.974;2023-08-01T00:45:20;99595.56;;;13.38;100.00
71476;BME280;59286;59.274;17.974;2023-08-01T00:47:46;99565.50;;;13.23;100.00
71476;BME280;59286;59.274;17.974;2023-08-01T00:50:11;99579.25;;;13.32;100.00
71476;BME280;59286;59.274;17.974;2023-08-01T00:52:37;99566.28;;;13.39;100.00
71476;BME280;59286;59.274;17.974;2023-08-01T00:55:02;99581.00;;;13.56;100.00
71476;BME280;59286;59.274;17.974;2023-08-01T00:57:28;99581.94;;;13.63;100.00
71476;BME280;59286;59.274;17.974;2023-08-01T00:59:53;99584.34;;;13.69;100.00
71476;BME280;59286;59.274;17.974;2023-08-01T01:02:19;99563.16;;;13.65;100.00
71476;BME280;59286;59.274;17.974;2023-08-01T01:04:44;99570.22;;;13.77;100.00
71476;BME280;59286;59.274;17.974;2023-08-01T01:07:10;99548.03;;;13.62;100.00
71476;BME280;59286;59.274;17.974;2023-08-01T01:09:36;99550.50;;;13.71;100.00
71476;BME280;59286;59.274;17.974;2023-08-01T01:12:01;99545.66;;;13.73;100.00
71476;BME280;59286;59.274;17.974;2023-08-01T01:14:27;99536.94;;;13.69;100.00
71476;BME280;59286;59.274;17.974;2023-08-01T01:16:53;99554.84;;;13.79;100.00
71476;BME280;59286;59.274;17.974;2023-08-01T01:19:18;99553.75;;;13.80;100.00
71476;BME280;59286;59.274;17.974;2023-08-01T01:21:44;99539.22;;;13.70;100.00
71476;BME280;59286;59.274;17.974;2023-08-01T01:24:11;99531.66;;;13.69;100.00
71476;BME280;59286;59.274;17.974;2023-08-01T01:26:40;99534.88;;;13.78;100.00
71476;BME280;59286;59.274;17.974;2023-08-01T01:29:06;99526.56;;;13.76;100.00
71476;BME280;59286;59.274;17.974;2023-08-01T01:31:34;99522.81;;;13.77;100.00
71476;BME280;59286;59.274;17.974;2023-08-01T01:34:00;99502.28;;;13.67;100.00
71476;BME280;59286;59.274;17.974;2023-08-01T01:36:26;99519.50;;;13.80;100.00
71476;BME280;59286;59.274;17.974;2023-08-01T01:38:51;99506.56;;;13.75;100.00
71476;BME280;59286;59.274;17.974;2023-08-01T01:41:16;99490.13;;;13.62;100.00
71476;BME280;59286;59.274;17.974;2023-08-01T01:43:42;99507.00;;;13.77;100.00
71476;BME280;59286;59.274;17.974;2023-08-01T01:46:07;99511.41;;;13.73;100.00
71476;BME280;59286;59.274;17.974;2023-08-01T01:48:32;99513.13;;;13.65;100.00
71476;BME280;59286;59.274;17.974;2023-08-01T01:50:58;99498.13;;;13.50;100.00
71476;BME280;59286;59.274;17.974;2023-08-01T01:53:24;99494.78;;;13.37;100.00
71476;BME280;59286;59.274;17.974;2023-08-01T01:55:49;99499.19;;;13.33;100.00
71476;BME280;59286;59.274;17.974;2023-08-01T01:58:14;99474.03;;;13.20;100.00
71476;BME280;59286;59.274;17.974;2023-08-01T02:00:40;99495.47;;;13.34;100.00
71476;BME280;59286;59.274;17.974;2023-08-01T02:03:05;99470.81;;;13.11;100.00
71476;BME280;59286;59.274;17.974;2023-08-01T02:05:36;99486.13;;;13.21;100.00
71476;BME280;59286;59.274;17.974;2023-08-01T02:08:02;99462.84;;;13.08;100.00
71476;BME280;59286;59.274;17.974;2023-08-01T02:10:28;99491.38;;;13.21;100.00
71476;BME280;59286;59.274;17.974;2023-08-01T02:12:53;99455.44;;;12.98;100.00
71476;BME280;59286;59.274;17.974;2023-08-01T02:15:18;99453.09;;;12.96;100.00
71476;BME280;59286;59.274;17.974;2023-08-01T02:17:44;99428.41;;;12.85;100.00
71476;BME280;59286;59.274;17.974;2023-08-01T02:20:09;99471.84;;;13.07;100.00
71476;BME280;59286;59.274;17.974;2023-08-01T02:22:35;99478.19;;;13.06;100.00
71476;BME280;59286;59.274;17.974;2023-08-01T02:25:00;99461.50;;;13.02;100.00
71476;BME280;59286;59.274;17.974;2023-08-01T02:27:26;99438.50;;;12.83;100.00
71476;BME280;59286;59.274;17.974;2023-08-01T02:29:54;99472.69;;;13.11;100.00
71476;BME280;59286;59.274;17.974;2023-08-01T02:32:19;99415.41;;;12.77;100.00
71476;BME280;59286;59.274;17.974;2023-08-01T02:34:45;99460.13;;;13.04;100.00
71476;BME280;59286;59.274;17.974;2023-08-01T02:37:10;99462.06;;;13.07;100.00
71476;BME280;59286;59.274;17.974;2023-08-01T02:39:36;99470.16;;;13.14;100.00
71476;BME280;59286;59.274;17.974;2023-08-01T02:42:02;99423.66;;;12.91;100.00
71476;BME280;59286;59.274;17.974;2023-08-01T02:44:28;99460.72;;;13.13;100.00
71476;BME280;59286;59.274;17.974;2023-08-01T02:46:54;99452.41;;;13.11;100.00
71476;BME280;59286;59.274;17.974;2023-08-01T02:49:19;99448.25;;;13.10;100.00
71476;BME280;59286;59.274;17.974;2023-08-01T02:51:44;99440.19;;;13.03;100.00
71476;BME280;59286;59.274;17.974;2023-08-01T02:54:10;99443.75;;;13.11;100.00
71476;BME280;59286;59.274;17.974;2023-08-01T02:56:35;99453.69;;;13.17;100.00
71476;BME280;59286;59.274;17.974;2023-08-01T02:59:02;99454.38;;;13.14;100.00
71476;BME280;59286;59.274;17.974;2023-08-01T03:01:29;99443.84;;;13.14;100.00
71476;BME280;59286;59.274;17.974;2023-08-01T03:03:55;99458.69;;;13.22;100.00
71476;BME280;59286;59.274;17.974;2023-08-01T03:06:20;99447.41;;;13.22;100.00
71476;BME280;59286;59.274;17.974;2023-08-01T03:08:46;99448.00;;;13.31;100.00
71476;BME280;59286;59.274;17.974;2023-08-01T03:11:11;99428.91;;;13.18;100.00
71476;BME280;59286;59.274;17.974;2023-08-01T03:13:37;99425.50;;;13.18;100.00
71476;BME280;59286;59.274;17.974;2023-08-01T03:16:02;99445.03;;;13.32;100.00
71476;BME280;59286;59.274;17.974;2023-08-01T03:18:29;99411.50;;;13.14;100.00
71476;BME280;59286;59.274;17.974;2023-08-01T03:20:54;99413.00;;;13.15;100.00
71476;BME280;59286;59.274;17.974;2023-08-01T03:23:20;99450.22;;;13.44;100.00
71476;BME280;59286;59.274;17.974;2023-08-01T03:25:45;99414.81;;;13.26;100.00
71476;BME280;59286;59.274;17.974;2023-08-01T03:28:11;99445.78;;;13.48;100.00
71476;BME280;59286;59.274;17.974;2023-08-01T03:30:36;99441.63;;;13.47;100.00
71476;BME280;59286;59.274;17.974;2023-08-01T03:33:01;99424.97;;;13.43;100.00
71476;BME280;59286;59.274;17.974;2023-08-01T03:35:28;99419.66;;;13.40;100.00
71476;BME280;59286;59.274;17.974;2023-08-01T03:37:53;99409.53;;;13.42;100.00
71476;BME280;59286;59.274;17.974;2023-08-01T03:40:19;99428.63;;;13.54;100.00
71476;BME280;59286;59.274;17.974;2023-08-01T03:42:45;99410.31;;;13.42;100.00
71476;BME280;59286;59.274;17.974;2023-08-01T03:45:10;99396.38;;;13.42;100.00
71476;BME280;59286;59.274;17.974;2023-08-01T03:47:36;99426.50;;;13.60;100.00
71476;BME280;59286;59.274;17.974;2023-08-01T03:50:01;99418.53;;;13.56;100.00
71476;BME280;59286;59.274;17.974;2023-08-01T03:52:26;99424.47;;;13.53;100.00
71476;BME280;59286;59.274;17.974;2023-08-01T03:54:55;99426.34;;;13.53;100.00
71476;BME280;59286;59.274;17.974;2023-08-01T03:57:21;99399.00;;;13.26;100.00
71476;BME280;59286;59.274;17.974;2023-08-01T03:59:46;99393.75;;;13.26;100.00
71476;BME280;59286;59.274;17.974;2023-08-01T04:02:12;99436.44;;;13.51;100.00
71476;BME280;59286;59.274;17.974;2023-08-01T04:04:37;99425.41;;;13.45;100.00
71476;BME280;59286;59.274;17.974;2023-08-01T04:07:03;99384.00;;;13.27;100.00
71476;BME280;59286;59.274;17.974;2023-08-01T04:09:29;99419.28;;;13.57;100.00
71476;BME280;59286;59.274;17.974;2023-08-01T04:11:55;99399.16;;;13.65;100.00
71476;BME280;59286;59.274;17.974;2023-08-01T04:14:20;99407.75;;;13.81;100.00
71476;BME280;59286;59.274;17.974;2023-08-01T04:16:46;99391.53;;;13.79;100.00
71476;BME280;59286;59.274;17.974;2023-08-01T04:19:11;99408.22;;;14.02;100.00
71476;BME280;59286;59.274;17.974;2023-08-01T04:21:36;99400.88;;;14.11;100.00
71476;BME280;59286;59.274;17.974;2023-08-01T04:24:02;99368.41;;;14.07;100.00
71476;BME280;59286;59.274;17.974;2023-08-01T04:26:27;99387.88;;;14.37;100.00
71476;BME280;59286;59.274;17.974;2023-08-01T04:28:53;99363.31;;;14.33;100.00
71476;BME280;59286;59.274;17.974;2023-08-01T04:31:18;99388.94;;;14.55;100.00
71476;BME280;59286;59.274;17.974;2023-08-01T04:33:43;99396.78;;;14.71;100.00
71476;BME280;59286;59.274;17.974;2023-08-01T04:36:10;99365.75;;;14.64;100.00
71476;BME280;59286;59.274;17.974;2023-08-01T04:38:35;99397.94;;;14.96;100.00
71476;BME280;59286;59.274;17.974;2023-08-01T04:41:00;99365.75;;;14.87;100.00
71476;BME280;59286;59.274;17.974;2023-08-01T04:43:28;99393.03;;;15.17;100.00
71476;BME280;59286;59.274;17.974;2023-08-01T04:45:53;99394.72;;;15.28;100.00
71476;BME280;59286;59.274;17.974;2023-08-01T04:48:18;99404.81;;;15.45;100.00
71476;BME280;59286;59.274;17.974;2023-08-01T04:50:44;99400.03;;;15.55;100.00
71476;BME280;59286;59.274;17.974;2023-08-01T04:53:10;99409.59;;;15.63;100.00
71476;BME280;59286;59.274;17.974;2023-08-01T04:55:36;99403.00;;;15.76;100.00
71476;BME280;59286;59.274;17.974;2023-08-01T04:58:02;99403.09;;;15.83;100.00
71476;BME280;59286;59.274;17.974;2023-08-01T05:00:27;99351.81;;;15.61;100.00
71476;BME280;59286;59.274;17.974;2023-08-01T05:02:53;99355.47;;;15.79;100.00
71476;BME280;59286;59.274;17.974;2023-08-01T05:05:18;99404.84;;;16.01;100.00
71476;BME280;59286;59.274;17.974;2023-08-01T05:07:43;99394.22;;;15.98;100.00
71476;BME280;59286;59.274;17.974;2023-08-01T05:10:09;99399.09;;;15.96;100.00
71476;BME280;59286;59.274;17.974;2023-08-01T05:12:35;99403.06;;;16.12;100.00
71476;BME280;59286;59.274;17.974;2023-08-01T05:15:00;99378.63;;;16.22;100.00
71476;BME280;59286;59.274;17.974;2023-08-01T05:17:26;99372.25;;;16.60;100.00
71476;BME280;59286;59.274;17.974;2023-08-01T05:19:51;99359.63;;;16.83;100.00
71476;BME280;59286;59.274;17.974;2023-08-01T05:22:16;99371.97;;;17.12;99.36
71476;BME280;59286;59.274;17.974;2023-08-01T05:24:42;99390.91;;;17.14;99.35
71476;BME280;59286;59.274;17.974;2023-08-01T05:27:07;99400.81;;;17.21;99.48
71476;BME280;59286;59.274;17.974;2023-08-01T05:29:32;99401.44;;;17.07;100.00
71476;BME280;59286;59.274;17.974;2023-08-01T05:31:58;99402.19;;;17.04;100.00
71476;BME280;59286;59.274;17.974;2023-08-01T05:34:23;99401.28;;;16.90;99.40
71476;BME280;59286;59.274;17.974;2023-08-01T05:36:49;99370.47;;;16.71;100.00
71476;BME280;59286;59.274;17.974;2023-08-01T05:39:15;99391.75;;;16.82;100.00
71476;BME280;59286;59.274;17.974;2023-08-01T05:41:42;99383.78;;;16.78;99.67
71476;BME280;59286;59.274;17.974;2023-08-01T05:44:07;99366.28;;;16.67;100.00
71476;BME280;59286;59.274;17.974;2023-08-01T05:46:33;99398.94;;;16.81;100.00
71476;BME280;59286;59.274;17.974;2023-08-01T05:48:58;99398.13;;;16.77;100.00
71476;BME280;59286;59.274;17.974;2023-08-01T05:51:23;99389.47;;;16.80;99.71
71476;BME280;59286;59.274;17.974;2023-08-01T05:53:49;99376.19;;;16.77;99.67
71476;BME280;59286;59.274;17.974;2023-08-01T05:56:14;99397.50;;;16.87;99.18
71476;BME280;59286;59.274;17.974;2023-08-01T05:58:40;99389.25;;;16.99;99.58
71476;BME280;59286;59.274;17.974;2023-08-01T06:01:06;99388.50;;;16.99;99.08
71476;BME280;59286;59.274;17.974;2023-08-01T06:03:31;99377.94;;;17.02;99.41
71476;BME280;59286;59.274;17.974;2023-08-01T06:05:56;99385.56;;;17.07;99.00
71476;BME280;59286;59.274;17.974;2023-08-01T06:08:22;99384.50;;;17.19;99.16
71476;BME280;59286;59.274;17.974;2023-08-01T06:10:47;99381.50;;;17.20;99.61
71476;BME280;59286;59.274;17.974;2023-08-01T06:13:13;99378.09;;;17.23;99.32
71476;BME280;59286;59.274;17.974;2023-08-01T06:15:38;99381.88;;;17.19;99.05
71476;BME280;59286;59.274;17.974;2023-08-01T06:18:03;99382.28;;;17.24;100.00
71476;BME280;59286;59.274;17.974;2023-08-01T06:20:29;99389.47;;;17.27;100.00
71476;BME280;59286;59.274;17.974;2023-08-01T06:22:54;99384.94;;;17.24;98.58
71476;BME280;59286;59.274;17.974;2023-08-01T06:25:20;99391.03;;;17.28;98.68
71476;BME280;59286;59.274;17.974;2023-08-01T06:27:45;99359.56;;;17.27;99.63
71476;BME280;59286;59.274;17.974;2023-08-01T06:30:11;99386.59;;;17.47;99.16
71476;BME280;59286;59.274;17.974;2023-08-01T06:32:36;99370.69;;;17.47;98.19
71476;BME280;59286;59.274;17.974;2023-08-01T06:35:01;99366.09;;;17.36;96.38
71476;BME280;59286;59.274;17.974;2023-08-01T06:37:27;99382.50;;;17.53;96.17
71476;BME280;59286;59.274;17.974;2023-08-01T06:39:54;99378.44;;;17.73;98.10
71476;BME280;59286;59.274;17.974;2023-08-01T06:42:19;99381.25;;;18.01;93.92
71476;BME280;59286;59.274;17.974;2023-08-01T06:44:45;99386.22;;;18.16;93.05
71476;BME280;59286;59.274;17.974;2023-08-01T06:47:11;99387.75;;;18.24;93.10
71476;BME280;59286;59.274;17.974;2023-08-01T06:49:36;99360.84;;;18.26;91.84
71476;BME280;59286;59.274;17.974;2023-08-01T06:52:01;99378.75;;;18.47;91.40
71476;BME280;59286;59.274;17.974;2023-08-01T06:54:27;99379.91;;;18.56;91.30
71476;BME280;59286;59.274;17.974;2023-08-01T06:56:52;99365.13;;;18.59;88.63
71476;BME280;59286;59.274;17.974;2023-08-01T06:59:18;99380.72;;;18.78;90.86
71476;BME280;59286;59.274;17.974;2023-08-01T07:01:43;99345.06;;;18.68;88.21
71476;BME280;59286;59.274;17.974;2023-08-01T07:04:12;99381.84;;;19.08;85.25
71476;BME280;59286;59.274;17.974;2023-08-01T07:06:38;99352.25;;;18.82;86.62
71476;BME280;59286;59.274;17.974;2023-08-01T07:09:04;99378.44;;;19.04;86.49
71476;BME280;59286;59.274;17.974;2023-08-01T07:11:29;99377.69;;;19.00;88.59
71476;BME280;59286;59.274;17.974;2023-08-01T07:13:54;99383.00;;;18.83;86.76
71476;BME280;59286;59.274;17.974;2023-08-01T07:16:20;99359.06;;;18.58;87.02
71476;BME280;59286;59.274;17.974;2023-08-01T07:18:45;99364.75;;;18.67;88.41
71476;BME280;59286;59.274;17.974;2023-08-01T07:21:11;99350.75;;;18.81;89.16
71476;BME280;59286;59.274;17.974;2023-08-01T07:23:36;99377.28;;;18.88;87.53
71476;BME280;59286;59.274;17.974;2023-08-01T07:26:02;99368.22;;;18.89;87.80
71476;BME280;59286;59.274;17.974;2023-08-01T07:28:27;99351.50;;;19.16;83.98
71476;BME280;59286;59.274;17.974;2023-08-01T07:31:06;99346.19;;;19.41;80.82
71476;BME280;59286;59.274;17.974;2023-08-01T07:33:33;99383.38;;;19.34;81.16
71476;BME280;59286;59.274;17.974;2023-08-01T07:35:59;99373.91;;;19.22;81.56
71476;BME280;59286;59.274;17.974;2023-08-01T07:38:25;99337.06;;;18.93;85.03
71476;BME280;59286;59.274;17.974;2023-08-01T07:40:52;99349.22;;;19.18;81.50
71476;BME280;59286;59.274;17.974;2023-08-01T07:43:17;99356.81;;;19.41;81.98
71476;BME280;59286;59.274;17.974;2023-08-01T07:45:44;99366.66;;;19.51;84.01
71476;BME280;59286;59.274;17.974;2023-08-01T07:48:09;99358.97;;;19.85;79.82
71476;BME280;59286;59.274;17.974;2023-08-01T07:50:35;99348.50;;;20.36;83.76
71476;BME280;59286;59.274;17.974;2023-08-01T07:53:00;99369.69;;;21.08;79.07
71476;BME280;59286;59.274;17.974;2023-08-01T07:55:26;99355.56;;;21.11;76.85
71476;BME280;59286;59.274;17.974;2023-08-01T07:57:51;99361.94;;;21.21;74.54
71476;BME280;59286;59.274;17.974;2023-08-01T08:00:17;99350.38;;;20.39;75.02
71476;BME280;59286;59.274;17.974;2023-08-01T08:02:43;99341.16;;;20.51;74.33
71476;BME280;59286;59.274;17.974;2023-08-01T08:05:09;99364.84;;;20.89;75.56
71476;BME280;59286;59.274;17.974;2023-08-01T08:07:34;99333.94;;;21.02;70.46
71476;BME280;59286;59.274;17.974;2023-08-01T08:10:00;99361.31;;;21.06;69.89
71476;BME280;59286;59.274;17.974;2023-08-01T08:12:25;99355.09;;;20.72;71.31
71476;BME280;59286;59.274;17.974;2023-08-01T08:14:50;99352.72;;;20.81;75.12
71476;BME280;59286;59.274;17.974;2023-08-01T08:17:16;99362.09;;;21.07;72.73
71476;BME280;59286;59.274;17.974;2023-08-01T08:19:41;99348.97;;;20.79;70.13
71476;BME280;59286;59.274;17.974;2023-08-01T08:22:06;99368.47;;;20.65;70.42
71476;BME280;59286;59.274;17.974;2023-08-01T08:24:32;99347.22;;;20.58;72.81
71476;BME280;59286;59.274;17.974;2023-08-01T08:26:58;99349.38;;;20.74;74.85
71476;BME280;59286;59.274;17.974;2023-08-01T08:29:23;99333.94;;;20.51;73.92
71476;BME280;59286;59.274;17.974;2023-08-01T08:31:49;99343.91;;;20.91;73.23
71476;BME280;59286;59.274;17.974;2023-08-01T08:34:14;99339.81;;;21.28;76.59
71476;BME280;59286;59.274;17.974;2023-08-01T08:36:39;99320.34;;;21.31;69.77
71476;BME280;59286;59.274;17.974;2023-08-01T08:39:05;99353.44;;;21.37;63.75
71476;BME280;59286;59.274;17.974;2023-08-01T08:41:58;99351.78;;;21.50;65.64
71476;BME280;59286;59.274;17.974;2023-08-01T08:44:24;99340.59;;;21.62;67.46
71476;BME280;59286;59.274;17.974;2023-08-01T08:46:53;99341.66;;;21.34;62.28
71476;BME280;59286;59.274;17.974;2023-08-01T08:49:19;99352.09;;;21.55;67.40
71476;BME280;59286;59.274;17.974;2023-08-01T08:51:47;99346.00;;;21.55;66.39
71476;BME280;59286;59.274;17.974;2023-08-01T08:54:13;99340.44;;;21.42;66.71
71476;BME280;59286;59.274;17.974;2023-08-01T08:56:40;99324.16;;;21.30;68.22
71476;BME280;59286;59.274;17.974;2023-08-01T08:59:07;99338.94;;;21.38;65.46
71476;BME280;59286;59.274;17.974;2023-08-01T09:01:33;99331.84;;;21.58;68.81
71476;BME280;59286;59.274;17.974;2023-08-01T09:03:59;99342.63;;;21.84;64.91
71476;BME280;59286;59.274;17.974;2023-08-01T09:06:28;99338.50;;;21.76;65.67
71476;BME280;59286;59.274;17.974;2023-08-01T09:09:10;99338.47;;;21.83;62.38
71476;BME280;59286;59.274;17.974;2023-08-01T09:11:44;99336.91;;;21.86;63.50
71476;BME280;59286;59.274;17.974;2023-08-01T09:14:10;99329.91;;;21.62;61.53
71476;BME280;59286;59.274;17.974;2023-08-01T09:16:35;99337.00;;;21.75;63.58
71476;BME280;59286;59.274;17.974;2023-08-01T09:19:01;99335.75;;;21.87;63.91
71476;BME280;59286;59.274;17.974;2023-08-01T09:21:27;99318.75;;;21.74;63.17
71476;BME280;59286;59.274;17.974;2023-08-01T09:23:58;99335.59;;;21.64;63.85
71476;BME280;59286;59.274;17.974;2023-08-01T09:26:24;99337.50;;;21.67;64.29
71476;BME280;59286;59.274;17.974;2023-08-01T09:28:56;99321.03;;;21.72;59.73
71476;BME280;59286;59.274;17.974;2023-08-01T09:31:30;99327.00;;;21.86;64.45
71476;BME280;59286;59.274;17.974;2023-08-01T09:33:55;99337.63;;;21.90;60.48
71476;BME280;59286;59.274;17.974;2023-08-01T09:36:22;99328.53;;;21.87;61.73
71476;BME280;59286;59.274;17.974;2023-08-01T09:38:49;99322.94;;;22.05;60.81
71476;BME280;59286;59.274;17.974;2023-08-01T09:41:18;99310.25;;;21.82;59.28
71476;BME280;59286;59.274;17.974;2023-08-01T09:43:45;99302.31;;;21.75;57.73
71476;BME280;59286;59.274;17.974;2023-08-01T09:46:11;99339.50;;;21.93;60.65
71476;BME280;59286;59.274;17.974;2023-08-01T09:48:37;99329.88;;;21.99;61.88
71476;BME280;59286;59.274;17.974;2023-08-01T09:51:21;99327.41;;;22.15;60.76
71476;BME280;59286;59.274;17.974;2023-08-01T09:53:52;99306.06;;;21.85;60.51
71476;BME280;59286;59.274;17.974;2023-08-01T09:56:25;99318.63;;;21.84;61.25
71476;BME280;59286;59.274;17.974;2023-08-01T09:58:55;99294.38;;;21.72;61.24
71476;BME280;59286;59.274;17.974;2023-08-01T10:01:23;99320.16;;;22.12;61.02
71476;BME280;59286;59.274;17.974;2023-08-01T10:03:51;99314.53;;;22.06;61.25
71476;BME280;59286;59.274;17.974;2023-08-01T10:06:21;99316.41;;;22.09;58.14
71476;BME280;59286;59.274;17.974;2023-08-01T10:08:48;99312.09;;;22.19;62.13
71476;BME280;59286;59.274;17.974;2023-08-01T10:11:19;99322.50;;;22.37;62.76
71476;BME280;59286;59.274;17.974;2023-08-01T10:13:45;99306.63;;;22.26;59.03
71476;BME280;59286;59.274;17.974;2023-08-01T10:16:11;99307.38;;;22.27;60.51
71476;BME280;59286;59.274;17.974;2023-08-01T10:18:38;99299.41;;;22.23;58.64
71476;BME280;59286;59.274;17.974;2023-08-01T10:21:12;99309.06;;;22.17;58.62
71476;BME280;59286;59.274;17.974;2023-08-01T10:23:38;99315.38;;;22.27;58.87
71476;BME280;59286;59.274;17.974;2023-08-01T10:26:07;99309.50;;;22.39;57.40
71476;BME280;59286;59.274;17.974;2023-08-01T10:28:38;99306.84;;;22.39;55.55
71476;BME280;59286;59.274;17.974;2023-08-01T10:31:11;99309.38;;;22.23;56.58
71476;BME280;59286;59.274;17.974;2023-08-01T10:33:41;99317.00;;;22.21;56.10
71476;BME280;59286;59.274;17.974;2023-08-01T10:36:17;99317.16;;;22.37;58.02
71476;BME280;59286;59.274;17.974;2023-08-01T10:38:54;99303.50;;;22.31;57.46
71476;BME280;59286;59.274;17.974;2023-08-01T10:41:27;99307.84;;;22.48;54.53
71476;BME280;59286;59.274;17.974;2023-08-01T10:44:09;99308.53;;;22.52;56.15
71476;BME280;59286;59.274;17.974;2023-08-01T10:46:49;99297.25;;;22.68;55.65
71476;BME280;59286;59.274;17.974;2023-08-01T10:49:16;99303.31;;;22.45;57.59
71476;BME280;59286;59.274;17.974;2023-08-01T10:51:43;99299.06;;;22.21;56.28
71476;BME280;59286;59.274;17.974;2023-08-01T10:54:23;99294.03;;;22.00;54.72
71476;BME280;59286;59.274;17.974;2023-08-01T10:56:50;99294.13;;;21.93;59.52
71476;BME280;59286;59.274;17.974;2023-08-01T10:59:16;99311.28;;;21.58;59.31
71476;BME280;59286;59.274;17.974;2023-08-01T11:01:50;99281.59;;;21.23;59.43
71476;BME280;59286;59.274;17.974;2023-08-01T11:04:20;99280.81;;;21.26;61.47
71476;BME280;59286;59.274;17.974;2023-08-01T11:06:51;99297.09;;;21.35;59.95
71476;BME280;59286;59.274;17.974;2023-08-01T11:09:25;99293.53;;;21.45;59.22
71476;BME280;59286;59.274;17.974;2023-08-01T11:11:53;99298.59;;;21.36;58.38
71476;BME280;59286;59.274;17.974;2023-08-01T11:14:20;99297.88;;;21.32;60.79
71476;BME280;59286;59.274;17.974;2023-08-01T11:16:48;99268.25;;;21.23;62.41
71476;BME280;59286;59.274;17.974;2023-08-01T11:21:49;99295.47;;;21.44;64.16
71476;BME280;59286;59.274;17.974;2023-08-01T11:24:16;99254.44;;;21.35;61.38
71476;BME280;59286;59.274;17.974;2023-08-01T11:26:46;99284.94;;;21.64;60.54
71476;BME280;59286;59.274;17.974;2023-08-01T11:29:13;99287.47;;;21.44;60.48
71476;BME280;59286;59.274;17.974;2023-08-01T11:31:40;99308.38;;;21.46;60.60
71476;BME280;59286;59.274;17.974;2023-08-01T11:34:07;99308.06;;;21.40;60.11
71476;BME280;59286;59.274;17.974;2023-08-01T11:36:36;99294.13;;;21.26;61.74
71476;BME280;59286;59.274;17.974;2023-08-01T11:39:02;99302.53;;;21.20;60.46
71476;BME280;59286;59.274;17.974;2023-08-01T11:41:28;99283.25;;;21.09;61.25
71476;BME280;59286;59.274;17.974;2023-08-01T11:43:54;99306.75;;;21.22;60.01
71476;BME280;59286;59.274;17.974;2023-08-01T11:46:20;99285.31;;;20.91;60.29
71476;BME280;59286;59.274;17.974;2023-08-01T11:48:47;99287.63;;;20.86;63.15
71476;BME280;59286;59.274;17.974;2023-08-01T11:51:13;99295.13;;;21.01;60.41
71476;BME280;59286;59.274;17.974;2023-08-01T11:53:38;99297.25;;;21.17;59.78
71476;BME280;59286;59.274;17.974;2023-08-01T11:56:07;99301.66;;;21.34;58.76
71476;BME280;59286;59.274;17.974;2023-08-01T11:58:39;99310.38;;;21.38;59.98
71476;BME280;59286;59.274;17.974;2023-08-01T12:01:12;99318.41;;;21.35;59.25
71476;BME280;59286;59.274;17.974;2023-08-01T12:03:44;99317.38;;;21.25;60.36
71476;BME280;59286;59.274;17.974;2023-08-01T12:06:10;99304.19;;;21.07;59.86
71476;BME280;59286;59.274;17.974;2023-08-01T12:08:37;99300.25;;;21.23;60.92
71476;BME280;59286;59.274;17.974;2023-08-01T12:11:03;99298.50;;;21.43;62.03
71476;BME280;59286;59.274;17.974;2023-08-01T12:13:28;99286.78;;;21.37;62.97
71476;BME280;59286;59.274;17.974;2023-08-01T12:15:55;99306.94;;;21.38;60.47
71476;BME280;59286;59.274;17.974;2023-08-01T12:18:25;99285.34;;;21.29;62.93
71476;BME280;59286;59.274;17.974;2023-08-01T12:20:54;99309.97;;;21.40;60.59
71476;BME280;59286;59.274;17.974;2023-08-01T12:23:20;99287.06;;;21.08;61.64
71476;BME280;59286;59.274;17.974;2023-08-01T12:25:48;99296.53;;;21.16;61.51
71476;BME280;59286;59.274;17.974;2023-08-01T12:28:14;99309.56;;;21.04;63.54
71476;BME280;59286;59.274;17.974;2023-08-01T12:30:41;99270.66;;;20.69;63.28
71476;BME280;59286;59.274;17.974;2023-08-01T12:33:07;99298.31;;;20.82;63.98
71476;BME280;59286;59.274;17.974;2023-08-01T12:35:33;99294.47;;;20.90;64.31
71476;BME280;59286;59.274;17.974;2023-08-01T12:37:58;99295.97;;;20.91;64.29
71476;BME280;59286;59.274;17.974;2023-08-01T12:40:23;99311.91;;;20.95;63.16
71476;BME280;59286;59.274;17.974;2023-08-01T12:42:49;99314.84;;;21.07;62.45
71476;BME280;59286;59.274;17.974;2023-08-01T12:45:14;99320.91;;;21.11;63.54